createdAt,value
2016-04-05T00:00:00.261Z,951.49
2016-04-05T00:01:00.264Z,951.47
2016-04-05T00:02:00.266Z,951.47
2016-04-05T00:03:00.269Z,951.42
2016-04-05T00:04:00.272Z,951.43
2016-04-05T00:05:00.275Z,951.43
2016-04-05T00:06:00.293Z,951.38
2016-04-05T00:07:00.297Z,951.36
2016-04-05T00:08:00.299Z,951.35
2016-04-05T00:09:00.318Z,951.32
2016-04-05T00:10:00.320Z,951.32
2016-04-05T00:11:00.354Z,951.29
2016-04-05T00:12:00.341Z,951.31
2016-04-05T00:13:00.343Z,951.3
2016-04-05T00:14:00.346Z,951.29
2016-04-05T00:15:00.364Z,951.32
2016-04-05T00:16:00.367Z,951.26
2016-04-05T00:17:00.370Z,951.27
2016-04-05T00:18:00.372Z,951.26
2016-04-05T00:19:00.391Z,951.24
2016-04-05T00:20:00.393Z,951.21
2016-04-05T00:21:00.396Z,951.29
2016-04-05T00:22:00.399Z,951.31
2016-04-05T00:23:00.417Z,951.26
2016-04-05T00:24:00.420Z,951.26
2016-04-05T00:25:00.422Z,951.29
2016-04-05T00:26:00.441Z,951.25
2016-04-05T00:27:00.444Z,951.26
2016-04-05T00:28:00.447Z,951.26
2016-04-05T00:29:00.450Z,951.29
2016-04-05T00:30:00.467Z,951.33
2016-04-05T00:31:00.470Z,951.31
2016-04-05T00:32:00.473Z,951.33
2016-04-05T00:33:00.492Z,951.31
2016-04-05T00:34:00.494Z,951.26
2016-04-05T00:35:00.513Z,951.32
2016-04-05T00:36:00.515Z,951.32
2016-04-05T00:37:00.518Z,951.35
2016-04-05T00:38:00.520Z,951.35
2016-04-05T00:39:00.538Z,951.34
2016-04-05T00:40:00.541Z,951.37
2016-04-05T00:41:00.544Z,951.38
2016-04-05T00:42:00.578Z,951.37
2016-04-05T00:43:00.565Z,951.4
2016-04-05T00:44:00.568Z,951.39
2016-04-05T00:45:00.570Z,951.37
2016-04-05T00:46:00.588Z,951.35
2016-04-05T00:47:00.591Z,951.35
2016-04-05T00:48:00.593Z,951.34
2016-04-05T00:49:00.612Z,951.28
2016-04-05T00:50:00.645Z,951.26
2016-04-05T00:51:00.617Z,951.23
2016-04-05T00:52:00.636Z,951.22
2016-04-05T00:53:00.638Z,951.2
2016-04-05T00:54:00.642Z,951.18
2016-04-05T00:55:00.644Z,951.18
2016-04-05T00:56:00.662Z,951.23
2016-04-05T00:57:00.665Z,951.18
2016-04-05T00:58:00.667Z,951.19
2016-04-05T00:59:00.670Z,951.13
2016-04-05T01:00:00.688Z,951.17
2016-04-05T01:01:00.691Z,951.12
2016-04-05T01:02:00.694Z,951.12
2016-04-05T01:03:00.713Z,951.05
2016-04-05T01:04:00.731Z,951.05
2016-04-05T01:05:00.719Z,951.06
2016-04-05T01:06:00.736Z,951.09
2016-04-05T01:07:00.739Z,951.06
2016-04-05T01:08:00.741Z,951.04
2016-04-05T01:09:00.760Z,951.06
2016-04-05T01:10:00.763Z,951.03
2016-04-05T01:11:00.780Z,951.01
2016-04-05T01:12:00.768Z,951.02
2016-04-05T01:13:00.785Z,950.99
2016-04-05T01:14:00.788Z,950.96
2016-04-05T01:15:00.791Z,950.99
2016-04-05T01:16:00.809Z,950.97
2016-04-05T01:17:00.812Z,950.98
2016-04-05T01:18:00.815Z,951.02
2016-04-05T01:19:00.818Z,951
2016-04-05T01:20:00.837Z,951
2016-04-05T01:21:00.839Z,950.99
2016-04-05T01:22:00.842Z,950.99
2016-04-05T01:23:00.859Z,950.97
2016-04-05T01:24:00.862Z,950.97
2016-04-05T01:25:00.865Z,950.94
2016-04-05T01:26:00.883Z,950.94
2016-04-05T01:27:00.886Z,950.92
2016-04-05T01:28:00.889Z,950.87
2016-04-05T01:29:00.891Z,950.89
2016-04-05T01:30:00.910Z,950.87
2016-04-05T01:31:00.913Z,950.84
2016-04-05T01:32:00.916Z,950.83
2016-04-05T01:33:00.934Z,950.86
2016-04-05T01:34:00.936Z,950.84
2016-04-05T01:35:00.955Z,950.83
2016-04-05T01:36:00.941Z,950.82
2016-04-05T01:37:00.960Z,950.84
2016-04-05T01:38:00.963Z,950.85
2016-04-05T01:39:00.965Z,950.89
2016-04-05T01:40:00.984Z,950.91
2016-04-05T01:41:00.986Z,950.87
2016-04-05T01:42:00.989Z,950.86
2016-04-05T01:43:01.008Z,950.87
2016-04-05T01:44:01.010Z,950.89
2016-04-05T01:45:01.013Z,950.82
2016-04-05T01:46:01.021Z,950.78
2016-04-05T01:47:01.077Z,950.77
2016-04-05T01:48:01.032Z,950.74
2016-04-05T01:49:01.035Z,950.73
2016-04-05T01:50:01.045Z,950.71
2016-04-05T01:51:01.062Z,950.7
2016-04-05T01:52:01.065Z,950.72
2016-04-05T01:53:01.068Z,950.75
2016-04-05T01:54:01.070Z,950.71
2016-04-05T01:55:01.090Z,950.73
2016-04-05T01:56:01.092Z,950.74
2016-04-05T01:57:01.095Z,950.75
2016-04-05T01:58:01.097Z,950.8
2016-04-05T01:59:01.115Z,950.83
2016-04-05T02:00:01.212Z,950.84
2016-04-05T02:01:01.121Z,950.87
2016-04-05T02:02:01.139Z,950.86
2016-04-05T02:03:01.142Z,950.89
2016-04-05T02:04:01.161Z,950.9
2016-04-05T02:05:01.164Z,950.92
2016-04-05T02:06:01.167Z,950.92
2016-04-05T02:07:01.169Z,950.89
2016-04-05T02:08:01.177Z,950.91
2016-04-05T02:09:01.180Z,950.93
2016-04-05T02:10:01.197Z,950.92
2016-04-05T02:11:01.200Z,950.91
2016-04-05T02:12:01.218Z,950.93
2016-04-05T02:13:01.221Z,950.9
2016-04-05T02:14:01.224Z,950.94
2016-04-05T02:15:01.226Z,950.91
2016-04-05T02:16:01.244Z,950.91
2016-04-05T02:17:01.246Z,950.93
2016-04-05T02:18:01.249Z,950.93
2016-04-05T02:19:01.252Z,950.9
2016-04-05T02:20:01.271Z,950.91
2016-04-05T02:21:01.274Z,950.95
2016-04-05T02:22:01.276Z,950.96
2016-04-05T02:23:01.279Z,950.97
2016-04-05T02:24:01.298Z,950.94
2016-04-05T02:25:01.300Z,950.95
2016-04-05T02:26:01.303Z,950.93
2016-04-05T02:27:01.320Z,950.93
2016-04-05T02:28:01.323Z,950.92
2016-04-05T02:29:01.326Z,950.92
2016-04-05T02:30:01.328Z,950.9
2016-04-05T02:31:01.348Z,950.9
2016-04-05T02:32:01.350Z,950.88
2016-04-05T02:33:01.353Z,950.88
2016-04-05T02:34:01.371Z,950.86
2016-04-05T02:35:01.374Z,950.85
2016-04-05T02:36:01.377Z,950.83
2016-04-05T02:37:01.395Z,950.82
2016-04-05T02:38:01.397Z,950.81
2016-04-05T02:39:01.400Z,950.8
2016-04-05T02:40:01.402Z,950.82
2016-04-05T02:41:01.421Z,950.84
2016-04-05T02:42:01.424Z,950.84
2016-04-05T02:43:01.426Z,950.88
2016-04-05T02:44:01.430Z,950.83
2016-04-05T02:45:01.446Z,950.82
2016-04-05T02:46:01.452Z,950.82
2016-04-05T02:47:01.426Z,950.8
2016-04-05T02:48:01.432Z,950.78
2016-04-05T02:49:01.438Z,950.8
2016-04-05T02:50:01.428Z,950.78
2016-04-05T02:51:01.427Z,950.76
2016-04-05T02:52:01.425Z,950.75
2016-04-05T02:53:01.782Z,950.72
2016-04-05T02:54:01.421Z,950.72
2016-04-05T02:55:01.435Z,950.74
2016-04-05T02:56:01.436Z,950.7
2016-04-05T02:57:01.437Z,950.71
2016-04-05T02:58:01.438Z,950.72
2016-04-05T02:59:01.455Z,950.69
2016-04-05T03:00:01.472Z,950.72
2016-04-05T03:01:01.474Z,950.74
2016-04-05T03:02:01.476Z,950.75
2016-04-05T03:03:01.493Z,950.75
2016-04-05T03:04:01.792Z,950.71
2016-04-05T03:05:01.497Z,950.69
2016-04-05T03:06:01.500Z,950.72
2016-04-05T03:07:01.502Z,950.74
2016-04-05T03:08:01.505Z,950.75
2016-04-05T03:09:01.524Z,950.7
2016-04-05T03:10:01.527Z,950.66
2016-04-05T03:11:01.530Z,950.67
2016-04-05T03:12:01.547Z,950.66
2016-04-05T03:13:01.910Z,950.68
2016-04-05T03:14:01.553Z,950.66
2016-04-05T03:15:01.587Z,950.63
2016-04-05T03:16:01.871Z,950.63
2016-04-05T03:17:01.577Z,950.66
2016-04-05T03:18:01.579Z,950.66
2016-04-05T03:19:01.582Z,950.66
2016-04-05T03:20:01.600Z,950.65
2016-04-05T03:21:01.759Z,950.64
2016-04-05T03:22:01.606Z,950.7
2016-04-05T03:23:01.624Z,950.72
2016-04-05T03:24:01.626Z,950.71
2016-04-05T03:25:01.629Z,950.73
2016-04-05T03:26:01.648Z,950.74
2016-04-05T03:27:01.995Z,950.73
2016-04-05T03:28:01.653Z,950.74
2016-04-05T03:29:01.656Z,950.71
2016-04-05T03:30:01.878Z,950.76
2016-04-05T03:31:01.771Z,950.75
2016-04-05T03:32:01.681Z,950.76
2016-04-05T03:33:01.683Z,950.77
2016-04-05T03:34:01.701Z,950.75
2016-04-05T03:35:01.704Z,950.76
2016-04-05T03:36:01.703Z,950.72
2016-04-05T03:37:01.722Z,950.76
2016-04-05T03:38:01.818Z,950.81
2016-04-05T03:39:01.931Z,950.82
2016-04-05T03:40:01.730Z,950.8
2016-04-05T03:41:01.749Z,950.74
2016-04-05T03:42:02.047Z,950.79
2016-04-05T03:43:01.754Z,950.77
2016-04-05T03:44:01.772Z,950.78
2016-04-05T03:45:01.775Z,950.83
2016-04-05T03:46:02.074Z,950.79
2016-04-05T03:47:01.890Z,950.78
2016-04-05T03:48:01.799Z,950.74
2016-04-05T03:49:02.146Z,950.76
2016-04-05T03:50:01.804Z,950.7
2016-04-05T03:51:01.807Z,950.69
2016-04-05T03:52:01.871Z,950.72
2016-04-05T03:53:02.171Z,950.66
2016-04-05T03:54:01.830Z,950.69
2016-04-05T03:55:01.849Z,950.66
2016-04-05T03:56:02.040Z,950.63
2016-04-05T03:57:01.995Z,950.66
2016-04-05T03:58:01.857Z,950.64
2016-04-05T03:59:01.875Z,950.65
2016-04-05T04:00:01.893Z,950.61
2016-04-05T04:01:01.880Z,950.62
2016-04-05T04:02:01.883Z,950.62
2016-04-05T04:03:01.901Z,950.65
2016-04-05T04:04:01.950Z,950.66
2016-04-05T04:05:01.906Z,950.61
2016-04-05T04:06:01.925Z,950.61
2016-04-05T04:07:01.928Z,950.61
2016-04-05T04:08:01.947Z,950.58
2016-04-05T04:09:01.933Z,950.54
2016-04-05T04:10:02.092Z,950.54
2016-04-05T04:11:01.955Z,950.57
2016-04-05T04:12:02.004Z,950.57
2016-04-05T04:13:01.975Z,950.54
2016-04-05T04:14:01.978Z,950.56
2016-04-05T04:15:02.027Z,950.54
2016-04-05T04:16:02.139Z,950.58
2016-04-05T04:17:02.252Z,950.56
2016-04-05T04:18:02.004Z,950.58
2016-04-05T04:19:02.007Z,950.56
2016-04-05T04:20:02.213Z,950.59
2016-04-05T04:21:02.027Z,950.62
2016-04-05T04:22:02.374Z,950.63
2016-04-05T04:23:02.032Z,950.62
2016-04-05T04:24:02.098Z,950.64
2016-04-05T04:25:02.054Z,950.65
2016-04-05T04:26:02.057Z,950.65
2016-04-05T04:27:02.060Z,950.66
2016-04-05T04:28:02.078Z,950.63
2016-04-05T04:29:02.081Z,950.66
2016-04-05T04:30:02.114Z,950.66
2016-04-05T04:31:02.101Z,950.68
2016-04-05T04:32:02.104Z,950.67
2016-04-05T04:33:02.404Z,950.69
2016-04-05T04:34:02.110Z,950.69
2016-04-05T04:35:02.222Z,950.68
2016-04-05T04:36:02.130Z,950.72
2016-04-05T04:37:02.337Z,950.73
2016-04-05T04:38:02.152Z,950.74
2016-04-05T04:39:02.155Z,950.71
2016-04-05T04:40:02.158Z,950.7
2016-04-05T04:41:02.160Z,950.75
2016-04-05T04:42:02.413Z,950.69
2016-04-05T04:43:02.181Z,950.68
2016-04-05T04:44:02.480Z,950.69
2016-04-05T04:45:02.577Z,950.7
2016-04-05T04:46:02.205Z,950.73
2016-04-05T04:47:02.458Z,950.73
2016-04-05T04:48:02.225Z,950.7
2016-04-05T04:49:02.213Z,950.76
2016-04-05T04:50:02.543Z,950.74
2016-04-05T04:51:02.233Z,950.71
2016-04-05T04:52:02.533Z,950.73
2016-04-05T04:53:02.442Z,950.79
2016-04-05T04:54:02.258Z,950.77
2016-04-05T04:55:02.260Z,950.76
2016-04-05T04:56:02.278Z,950.78
2016-04-05T04:57:02.282Z,950.81
2016-04-05T04:58:02.284Z,950.83
2016-04-05T04:59:02.287Z,950.78
2016-04-05T05:00:02.664Z,950.76
2016-04-05T05:01:02.307Z,950.79
2016-04-05T05:02:02.310Z,950.79
2016-04-05T05:03:02.312Z,950.79
2016-04-05T05:04:02.675Z,950.77
2016-04-05T05:05:02.584Z,950.79
2016-04-05T05:06:02.336Z,950.8
2016-04-05T05:07:02.339Z,950.85
2016-04-05T05:08:02.514Z,950.85
2016-04-05T05:09:02.361Z,950.83
2016-04-05T05:10:02.363Z,950.84
2016-04-05T05:11:02.381Z,950.92
2016-04-05T05:12:02.384Z,950.91
2016-04-05T05:13:02.386Z,950.96
2016-04-05T05:14:02.499Z,950.94
2016-04-05T05:15:02.408Z,950.96
2016-04-05T05:16:02.411Z,950.99
2016-04-05T05:17:02.616Z,950.95
2016-04-05T05:18:02.415Z,950.98
2016-04-05T05:19:02.434Z,950.96
2016-04-05T05:20:02.483Z,950.9
2016-04-05T05:21:02.751Z,950.9
2016-04-05T05:22:02.458Z,950.96
2016-04-05T05:23:02.554Z,950.89
2016-04-05T05:24:02.666Z,950.92
2016-04-05T05:25:02.466Z,950.91
2016-04-05T05:26:02.671Z,950.91
2016-04-05T05:27:02.487Z,950.91
2016-04-05T05:28:02.693Z,950.97
2016-04-05T05:29:02.493Z,950.93
2016-04-05T05:30:02.713Z,951
2016-04-05T05:31:02.763Z,950.99
2016-04-05T05:32:02.515Z,950.99
2016-04-05T05:33:02.534Z,951.02
2016-04-05T05:34:02.537Z,950.93
2016-04-05T05:35:02.555Z,950.99
2016-04-05T05:36:02.604Z,950.93
2016-04-05T05:37:02.545Z,950.98
2016-04-05T05:38:02.563Z,950.96
2016-04-05T05:39:02.567Z,950.95
2016-04-05T05:40:02.584Z,950.99
2016-04-05T05:41:02.586Z,950.96
2016-04-05T05:42:02.590Z,950.98
2016-04-05T05:43:02.592Z,950.99
2016-04-05T05:44:02.658Z,950.97
2016-04-05T05:45:02.614Z,951.07
2016-04-05T05:46:02.616Z,951.09
2016-04-05T05:47:02.775Z,951.08
2016-04-05T05:48:02.636Z,951.02
2016-04-05T05:49:02.639Z,951.04
2016-04-05T05:50:02.641Z,951.05
2016-04-05T05:51:02.644Z,951.06
2016-04-05T05:52:02.663Z,951.11
2016-04-05T05:53:02.666Z,951.08
2016-04-05T05:54:02.669Z,951.08
2016-04-05T05:55:02.687Z,951.07
2016-04-05T05:56:02.690Z,951.05
2016-04-05T05:57:02.693Z,951.03
2016-04-05T05:58:02.695Z,951.05
2016-04-05T05:59:02.729Z,951.04
2016-04-05T06:00:02.732Z,951.05
2016-04-05T06:01:02.719Z,951.05
2016-04-05T06:02:02.721Z,951.07
2016-04-05T06:03:02.739Z,951.05
2016-04-05T06:04:02.743Z,951.07
2016-04-05T06:05:02.745Z,951.13
2016-04-05T06:06:02.763Z,951.1
2016-04-05T06:07:02.767Z,951.09
2016-04-05T06:08:02.769Z,951.03
2016-04-05T06:09:02.772Z,951.05
2016-04-05T06:10:02.790Z,951.04
2016-04-05T06:11:02.808Z,951.08
2016-04-05T06:12:02.795Z,951.1
2016-04-05T06:13:02.798Z,951.13
2016-04-05T06:14:02.816Z,951.1
2016-04-05T06:15:02.819Z,951.12
2016-04-05T06:16:02.837Z,951.12
2016-04-05T06:17:02.839Z,951.13
2016-04-05T06:18:02.842Z,951.15
2016-04-05T06:19:02.845Z,951.12
2016-04-05T06:20:02.863Z,951.08
2016-04-05T06:21:02.866Z,951.08
2016-04-05T06:22:02.869Z,951.09
2016-04-05T06:23:02.872Z,951.09
2016-04-05T06:24:02.891Z,951.12
2016-04-05T06:25:02.893Z,951.11
2016-04-05T06:26:02.895Z,951.1
2016-04-05T06:27:02.914Z,951.08
2016-04-05T06:28:02.916Z,951.11
2016-04-05T06:29:02.918Z,951.1
2016-04-05T06:30:02.922Z,951.13
2016-04-05T06:31:02.940Z,951.12
2016-04-05T06:32:02.943Z,951.12
2016-04-05T06:33:02.945Z,951.12
2016-04-05T06:34:02.948Z,951.17
2016-04-05T06:35:02.967Z,951.12
2016-04-05T06:36:02.969Z,951.17
2016-04-05T06:37:02.972Z,951.18
2016-04-05T06:38:02.990Z,951.17
2016-04-05T06:39:02.993Z,951.18
2016-04-05T06:40:02.995Z,951.2
2016-04-05T06:41:03.014Z,951.18
2016-04-05T06:42:03.017Z,951.22
2016-04-05T06:43:03.019Z,951.21
2016-04-05T06:44:03.037Z,951.2
2016-04-05T06:45:03.040Z,951.23
2016-04-05T06:46:03.043Z,951.28
2016-04-05T06:47:03.045Z,951.24
2016-04-05T06:48:03.047Z,951.26
2016-04-05T06:49:03.067Z,951.21
2016-04-05T06:50:03.069Z,951.25
2016-04-05T06:51:03.072Z,951.23
2016-04-05T06:52:03.091Z,951.26
2016-04-05T06:53:03.093Z,951.22
2016-04-05T06:54:03.096Z,951.24
2016-04-05T06:55:03.099Z,951.23
2016-04-05T06:56:03.101Z,951.29
2016-04-05T06:57:03.119Z,951.28
2016-04-05T06:58:03.122Z,951.27
2016-04-05T06:59:03.124Z,951.29
2016-04-05T07:00:03.143Z,951.26
2016-04-05T07:01:03.146Z,951.31
2016-04-05T07:02:03.148Z,951.28
2016-04-05T07:03:03.167Z,951.29
2016-04-05T07:04:03.170Z,951.33
2016-04-05T07:05:03.172Z,951.32
2016-04-05T07:06:03.175Z,951.3
2016-04-05T07:07:03.193Z,951.33
2016-04-05T07:08:03.228Z,951.34
2016-04-05T07:09:03.200Z,951.33
2016-04-05T07:10:03.219Z,951.34
2016-04-05T07:11:03.221Z,951.32
2016-04-05T07:12:03.224Z,951.34
2016-04-05T07:13:03.227Z,951.35
2016-04-05T07:14:03.245Z,951.33
2016-04-05T07:15:03.247Z,951.31
2016-04-05T07:16:03.250Z,951.32
2016-04-05T07:17:03.269Z,951.28
2016-04-05T07:18:03.272Z,951.32
2016-04-05T07:19:03.274Z,951.38
2016-04-05T07:20:03.277Z,951.35
2016-04-05T07:21:03.296Z,951.38
2016-04-05T07:22:03.298Z,951.38
2016-04-05T07:23:03.301Z,951.37
2016-04-05T07:24:03.319Z,951.37
2016-04-05T07:25:03.321Z,951.37
2016-04-05T07:26:03.324Z,951.37
2016-04-05T07:27:03.326Z,951.39
2016-04-05T07:28:03.345Z,951.39
2016-04-05T07:29:03.348Z,951.41
2016-04-05T07:30:03.350Z,951.45
2016-04-05T07:31:03.369Z,951.46
2016-04-05T07:32:03.371Z,951.47
2016-04-05T07:33:03.373Z,951.4
2016-04-05T07:34:03.376Z,951.45
2016-04-05T07:35:03.395Z,951.47
2016-04-05T07:36:03.398Z,951.46
2016-04-05T07:37:03.400Z,951.52
2016-04-05T07:38:03.420Z,951.48
2016-04-05T07:39:03.422Z,951.49
2016-04-05T07:40:03.424Z,951.48
2016-04-05T07:41:03.427Z,951.47
2016-04-05T07:42:03.430Z,951.46
2016-04-05T07:43:03.464Z,951.52
2016-04-05T07:44:03.450Z,951.52
2016-04-05T07:45:03.469Z,951.51
2016-04-05T07:46:03.472Z,951.54
2016-04-05T07:47:03.474Z,951.54
2016-04-05T07:48:03.477Z,951.51
2016-04-05T07:49:03.496Z,951.52
2016-04-05T07:50:03.499Z,951.56
2016-04-05T07:51:03.516Z,951.57
2016-04-05T07:52:03.504Z,951.58
2016-04-05T07:53:03.522Z,951.55
2016-04-05T07:54:03.524Z,951.57
2016-04-05T07:55:03.527Z,951.56
2016-04-05T07:56:03.546Z,951.58
2016-04-05T07:57:03.548Z,951.59
2016-04-05T07:58:03.566Z,951.58
2016-04-05T07:59:03.569Z,951.64
2016-04-05T08:00:03.571Z,951.63
2016-04-05T08:01:03.574Z,951.67
2016-04-05T08:02:03.592Z,951.66
2016-04-05T08:03:03.596Z,951.66
2016-04-05T08:04:03.598Z,951.65
2016-04-05T08:05:03.601Z,951.69
2016-04-05T08:06:03.620Z,951.66
2016-04-05T08:07:03.622Z,951.7
2016-04-05T08:08:03.640Z,951.68
2016-04-05T08:09:03.643Z,951.7
2016-04-05T08:10:03.645Z,951.7
2016-04-05T08:11:03.664Z,951.69
2016-04-05T08:12:03.666Z,951.73
2016-04-05T08:13:03.670Z,951.69
2016-04-05T08:14:03.672Z,951.72
2016-04-05T08:15:03.675Z,951.77
2016-04-05T08:16:03.693Z,951.73
2016-04-05T08:17:03.696Z,951.76
2016-04-05T08:18:03.699Z,951.76
2016-04-05T08:19:03.701Z,951.75
2016-04-05T08:20:03.720Z,951.8
2016-04-05T08:21:03.722Z,951.77
2016-04-05T08:22:03.740Z,951.79
2016-04-05T08:23:03.743Z,951.8
2016-04-05T08:24:03.745Z,951.81
2016-04-05T08:25:03.749Z,951.78
2016-04-05T08:26:03.766Z,951.83
2016-04-05T08:27:03.769Z,951.82
2016-04-05T08:28:03.772Z,951.81
2016-04-05T08:29:03.790Z,951.82
2016-04-05T08:30:03.793Z,951.84
2016-04-05T08:31:03.796Z,951.83
2016-04-05T08:32:03.798Z,951.84
2016-04-05T08:33:03.817Z,951.82
2016-04-05T08:34:03.820Z,951.84
2016-04-05T08:35:03.823Z,951.87
2016-04-05T08:36:03.840Z,951.88
2016-04-05T08:37:03.843Z,951.91
2016-04-05T08:38:03.845Z,951.93
2016-04-05T08:39:03.864Z,951.93
2016-04-05T08:40:03.867Z,951.93
2016-04-05T08:41:03.869Z,951.9
2016-04-05T08:42:03.889Z,951.96
2016-04-05T08:43:03.891Z,951.93
2016-04-05T08:44:03.893Z,951.94
2016-04-05T08:45:03.911Z,951.98
2016-04-05T08:46:03.914Z,951.97
2016-04-05T08:47:03.917Z,951.96
2016-04-05T08:48:03.935Z,951.98
2016-04-05T08:49:03.939Z,952
2016-04-05T08:50:03.941Z,952.03
2016-04-05T08:51:03.958Z,952.01
2016-04-05T08:52:03.961Z,952.03
2016-04-05T08:53:03.963Z,952
2016-04-05T08:54:03.967Z,952.04
2016-04-05T08:55:03.985Z,952.03
2016-04-05T08:56:03.988Z,952.04
2016-04-05T08:57:04.007Z,952.09
2016-04-05T08:58:04.009Z,952.06
2016-04-05T08:59:04.012Z,952.07
2016-04-05T09:00:04.015Z,952.06
2016-04-05T09:01:04.032Z,952.01
2016-04-05T09:02:04.035Z,952.04
2016-04-05T09:03:04.038Z,952.06
2016-04-05T09:04:04.057Z,952
2016-04-05T09:05:04.059Z,952.04
2016-04-05T09:06:04.062Z,952.03
2016-04-05T09:07:04.080Z,952.04
2016-04-05T09:08:04.083Z,952.04
2016-04-05T09:09:04.086Z,952.04
2016-04-05T09:10:04.092Z,952.08
2016-04-05T09:11:04.096Z,952.05
2016-04-05T09:12:04.114Z,952.09
2016-04-05T09:13:04.117Z,952.05
2016-04-05T09:14:04.119Z,952.03
2016-04-05T09:15:04.138Z,952.03
2016-04-05T09:16:04.141Z,952.05
2016-04-05T09:17:04.174Z,952.04
2016-04-05T09:18:04.161Z,952.01
2016-04-05T09:19:04.164Z,952
2016-04-05T09:20:04.183Z,952.04
2016-04-05T09:21:04.216Z,952.05
2016-04-05T09:22:04.188Z,952.02
2016-04-05T09:23:04.191Z,952.03
2016-04-05T09:24:04.209Z,952.04
2016-04-05T09:25:04.212Z,952.02
2016-04-05T09:26:04.229Z,952.04
2016-04-05T09:27:04.233Z,952.03
2016-04-05T09:28:04.235Z,952.03
2016-04-05T09:29:04.254Z,952
2016-04-05T09:30:04.256Z,952.02
2016-04-05T09:31:04.368Z,952.03
2016-04-05T09:32:04.277Z,952.02
2016-04-05T09:33:04.279Z,951.98
2016-04-05T09:34:04.282Z,952.07
2016-04-05T09:35:04.301Z,952.04
2016-04-05T09:36:04.304Z,952.03
2016-04-05T09:37:04.307Z,952.03
2016-04-05T09:38:04.325Z,952.07
2016-04-05T09:39:04.531Z,952.07
2016-04-05T09:40:04.330Z,952.06
2016-04-05T09:41:04.348Z,952.07
2016-04-05T09:42:04.350Z,952.1
2016-04-05T09:43:04.354Z,952.1
2016-04-05T09:44:04.372Z,952.06
2016-04-05T09:45:04.374Z,952.1
2016-04-05T09:46:04.518Z,952.07
2016-04-05T09:47:04.396Z,952.09
2016-04-05T09:48:04.398Z,952.12
2016-04-05T09:49:04.432Z,952.15
2016-04-05T09:50:04.420Z,952.2
2016-04-05T09:51:04.438Z,952.15
2016-04-05T09:52:04.424Z,952.15
2016-04-05T09:53:04.444Z,952.2
2016-04-05T09:54:04.446Z,952.21
2016-04-05T09:55:04.480Z,952.19
2016-04-05T09:56:04.466Z,952.15
2016-04-05T09:57:04.469Z,952.19
2016-04-05T09:58:04.488Z,952.24
2016-04-05T09:59:04.490Z,952.21
2016-04-05T10:00:04.509Z,952.25
2016-04-05T10:01:04.511Z,952.24
2016-04-05T10:02:04.515Z,952.25
2016-04-05T10:03:04.517Z,952.23
2016-04-05T10:04:04.535Z,952.24
2016-04-05T10:05:04.537Z,952.29
2016-04-05T10:06:04.540Z,952.31
2016-04-05T10:07:04.558Z,952.31
2016-04-05T10:08:04.561Z,952.28
2016-04-05T10:09:04.564Z,952.29
2016-04-05T10:10:04.582Z,952.33
2016-04-05T10:11:04.585Z,952.3
2016-04-05T10:12:04.603Z,952.27
2016-04-05T10:13:04.622Z,952.27
2016-04-05T10:14:04.609Z,952.3
2016-04-05T10:15:04.628Z,952.34
2016-04-05T10:16:04.645Z,952.35
2016-04-05T10:17:04.633Z,952.37
2016-04-05T10:18:04.651Z,952.32
2016-04-05T10:19:04.653Z,952.33
2016-04-05T10:20:04.656Z,952.39
2016-04-05T10:21:04.674Z,952.39
2016-04-05T10:22:04.677Z,952.37
2016-04-05T10:23:04.680Z,952.36
2016-04-05T10:24:04.682Z,952.39
2016-04-05T10:25:04.702Z,952.41
2016-04-05T10:26:04.704Z,952.39
2016-04-05T10:27:04.722Z,952.38
2016-04-05T10:28:04.725Z,952.44
2016-04-05T10:29:04.727Z,952.41
2016-04-05T10:30:04.746Z,952.46
2016-04-05T10:31:04.748Z,952.49
2016-04-05T10:32:04.767Z,952.48
2016-04-05T10:33:04.770Z,952.5
2016-04-05T10:34:04.804Z,952.46
2016-04-05T10:35:04.775Z,952.51
2016-04-05T10:36:04.793Z,952.52
2016-04-05T10:37:04.795Z,952.54
2016-04-05T10:38:04.814Z,952.53
2016-04-05T10:39:04.817Z,952.56
2016-04-05T10:40:04.834Z,952.56
2016-04-05T10:41:04.837Z,952.54
2016-04-05T10:42:04.840Z,952.57
2016-04-05T10:43:04.858Z,952.57
2016-04-05T10:44:04.862Z,952.59
2016-04-05T10:45:04.864Z,952.58
2016-04-05T10:46:04.867Z,952.57
2016-04-05T10:47:04.885Z,952.61
2016-04-05T10:48:04.888Z,952.62
2016-04-05T10:49:04.906Z,952.64
2016-04-05T10:50:04.908Z,952.61
2016-04-05T10:51:04.927Z,952.58
2016-04-05T10:52:04.930Z,952.58
2016-04-05T10:53:04.932Z,952.57
2016-04-05T10:54:04.951Z,952.56
2016-04-05T10:55:04.953Z,952.59
2016-04-05T10:56:04.972Z,952.6
2016-04-05T10:57:04.974Z,952.61
2016-04-05T10:58:04.977Z,952.63
2016-04-05T10:59:04.996Z,952.66
2016-04-05T11:00:04.999Z,952.68
2016-04-05T11:01:05.001Z,952.68
2016-04-05T11:02:05.004Z,952.63
2016-04-05T11:03:05.021Z,952.66
2016-04-05T11:04:05.025Z,952.64
2016-04-05T11:05:05.043Z,952.68
2016-04-05T11:06:05.046Z,952.67
2016-04-05T11:07:05.049Z,952.72
2016-04-05T11:08:05.042Z,952.7
2016-04-05T11:09:05.051Z,952.72
2016-04-05T11:10:05.070Z,952.77
2016-04-05T11:11:05.073Z,952.79
2016-04-05T11:12:05.090Z,952.78
2016-04-05T11:13:05.093Z,952.81
2016-04-05T11:14:05.096Z,952.82
2016-04-05T11:15:05.115Z,952.81
2016-04-05T11:16:05.118Z,952.85
2016-04-05T11:17:05.136Z,952.87
2016-04-05T11:18:05.139Z,952.81
2016-04-05T11:19:05.142Z,952.81
2016-04-05T11:20:05.159Z,952.8
2016-04-05T11:21:05.162Z,952.81
2016-04-05T11:22:05.181Z,952.77
2016-04-05T11:23:05.200Z,952.78
2016-04-05T11:24:05.186Z,952.75
2016-04-05T11:25:05.188Z,952.71
2016-04-05T11:26:05.207Z,952.72
2016-04-05T11:27:05.210Z,952.72
2016-04-05T11:28:05.228Z,952.73
2016-04-05T11:29:05.231Z,952.74
2016-04-05T11:30:05.233Z,952.7
2016-04-05T11:31:05.252Z,952.74
2016-04-05T11:32:05.255Z,952.72
2016-04-05T11:33:05.257Z,952.69
2016-04-05T11:34:05.275Z,952.68
2016-04-05T11:35:05.278Z,952.68
2016-04-05T11:36:05.296Z,952.67
2016-04-05T11:37:05.299Z,952.64
2016-04-05T11:38:05.301Z,952.66
2016-04-05T11:39:05.320Z,952.67
2016-04-05T11:40:05.323Z,952.65
2016-04-05T11:41:05.325Z,952.68
2016-04-05T11:42:05.343Z,952.66
2016-04-05T11:43:05.345Z,952.63
2016-04-05T11:44:05.364Z,952.68
2016-04-05T11:45:05.367Z,952.65
2016-04-05T11:46:05.369Z,952.68
2016-04-05T11:47:05.389Z,952.71
2016-04-05T11:48:05.391Z,952.67
2016-04-05T11:49:05.394Z,952.7
2016-04-05T11:50:05.411Z,952.69
2016-04-05T11:51:05.412Z,952.66
2016-04-05T11:52:05.438Z,952.65
2016-04-05T11:53:05.416Z,952.62
2016-04-05T11:54:05.410Z,952.63
2016-04-05T11:55:05.419Z,952.58
2016-04-05T11:56:05.414Z,952.57
2016-04-05T11:57:05.430Z,952.58
2016-04-05T11:58:05.429Z,952.59
2016-04-05T11:59:05.444Z,952.62
2016-04-05T12:00:05.445Z,952.6
2016-04-05T12:01:05.444Z,952.64
2016-04-05T12:02:05.446Z,952.61
2016-04-05T12:03:05.463Z,952.61
2016-04-05T12:04:05.464Z,952.61
2016-04-05T12:05:05.497Z,952.64
2016-04-05T12:06:05.484Z,952.62
2016-04-05T12:07:05.486Z,952.64
2016-04-05T12:08:05.488Z,952.63
2016-04-05T12:09:05.506Z,952.65
2016-04-05T12:10:05.508Z,952.6
2016-04-05T12:11:05.526Z,952.63
2016-04-05T12:12:05.529Z,952.63
2016-04-05T12:13:05.531Z,952.6
2016-04-05T12:14:05.550Z,952.63
2016-04-05T12:15:05.553Z,952.63
2016-04-05T12:16:05.570Z,952.61
2016-04-05T12:17:05.573Z,952.62
2016-04-05T12:18:05.576Z,952.61
2016-04-05T12:19:05.595Z,952.62
2016-04-05T12:20:05.597Z,952.62
2016-04-05T12:21:05.600Z,952.64
2016-04-05T12:22:05.618Z,952.64
2016-04-05T12:23:05.621Z,952.64
2016-04-05T12:24:05.624Z,952.64
2016-04-05T12:25:05.642Z,952.65
2016-04-05T12:26:05.644Z,952.63
2016-04-05T12:27:05.663Z,952.65
2016-04-05T12:28:05.665Z,952.63
2016-04-05T12:29:05.669Z,952.62
2016-04-05T12:30:05.687Z,952.61